createdAt,value
2018-06-10T00:00:14.690Z,1011.38
2018-06-10T00:01:23.555Z,1011.4
2018-06-10T00:02:32.710Z,1011.4
2018-06-10T00:03:41.841Z,1011.38
2018-06-10T00:04:50.984Z,1011.38
2018-06-10T00:06:00.399Z,1011.37
2018-06-10T00:07:09.541Z,1011.34
2018-06-10T00:08:18.406Z,1011.33
2018-06-10T00:09:27.322Z,1011.32
2018-06-10T00:10:36.186Z,1011.29
2018-06-10T00:11:45.051Z,1011.3
2018-06-10T00:12:54.194Z,1011.24
2018-06-10T00:14:03.056Z,1011.24
2018-06-10T00:15:12.250Z,1011.22
2018-06-10T00:16:21.113Z,1011.21
2018-06-10T00:17:29.977Z,1011.23
2018-06-10T00:18:38.844Z,1011.21
2018-06-10T00:19:48.261Z,1011.17
2018-06-10T00:20:57.177Z,1011.17
2018-06-10T00:22:06.317Z,1011.11
2018-06-10T00:23:15.182Z,1011.17
2018-06-10T00:24:24.322Z,1011.2
2018-06-10T00:25:33.188Z,1011.19
2018-06-10T00:26:42.201Z,1011.17
2018-06-10T00:27:51.340Z,1011.17
2018-06-10T00:29:00.204Z,1011.21
2018-06-10T00:30:09.068Z,1011.19
2018-06-10T00:31:17.934Z,1011.25
2018-06-10T00:32:27.074Z,1011.24
2018-06-10T00:33:35.939Z,1011.21
2018-06-10T00:34:45.078Z,1011.19
2018-06-10T00:35:53.943Z,1011.21
2018-06-10T00:37:02.808Z,1011.22
2018-06-10T00:38:12.023Z,1011.2
2018-06-10T00:39:20.887Z,1011.22
2018-06-10T00:40:29.753Z,1011.21
2018-06-10T00:41:38.616Z,1011.18
2018-06-10T00:42:47.477Z,1011.19
2018-06-10T00:43:56.442Z,1011.14
2018-06-10T00:45:05.304Z,1011.12
2018-06-10T00:46:14.170Z,1011.09
2018-06-10T00:47:23.032Z,1011.06
2018-06-10T00:48:31.900Z,1011.06
2018-06-10T00:49:41.041Z,1011.07
2018-06-10T00:50:49.908Z,1011.05
2018-06-10T00:51:58.770Z,1011.04
2018-06-10T00:53:07.635Z,1011.05
2018-06-10T00:54:16.501Z,1011.06
2018-06-10T00:55:25.517Z,1011.05
2018-06-10T00:56:34.380Z,1011.11
2018-06-10T00:57:43.246Z,1011.08
2018-06-10T00:58:52.666Z,1011.06
2018-06-10T01:00:01.803Z,1011.13
2018-06-10T01:01:10.818Z,1011.15
2018-06-10T01:02:19.683Z,1011.13
2018-06-10T01:03:28.553Z,1011.18
2018-06-10T01:04:37.418Z,1011.17
2018-06-10T01:05:46.282Z,1011.14
2018-06-10T01:06:55.147Z,1011.1
2018-06-10T01:08:04.016Z,1011.13
2018-06-10T01:09:12.879Z,1011.11
2018-06-10T01:10:21.743Z,1011.12
2018-06-10T01:11:30.607Z,1011.14
2018-06-10T01:12:39.477Z,1011.18
2018-06-10T01:13:48.616Z,1011.13
2018-06-10T01:14:57.481Z,1011.16
2018-06-10T01:16:06.349Z,1011.19
2018-06-10T01:17:15.215Z,1011.23
2018-06-10T01:18:24.127Z,1011.26
2018-06-10T01:19:32.993Z,1011.3
2018-06-10T01:20:41.858Z,1011.26
2018-06-10T01:21:50.722Z,1011.33
2018-06-10T01:23:00.140Z,1011.33
2018-06-10T01:24:09.002Z,1011.29
2018-06-10T01:25:17.864Z,1011.29
2018-06-10T01:26:27.006Z,1011.35
2018-06-10T01:27:35.869Z,1011.36
2018-06-10T01:28:44.732Z,1011.3
2018-06-10T01:29:53.596Z,1011.27
2018-06-10T01:31:02.766Z,1011.2
2018-06-10T01:32:11.911Z,1011.17
2018-06-10T01:33:20.776Z,1011.11
2018-06-10T01:34:29.641Z,1011.15
2018-06-10T01:35:38.506Z,1011.11
2018-06-10T01:36:47.374Z,1011.07
2018-06-10T01:37:56.514Z,1011.05
2018-06-10T01:39:05.653Z,1011.06
2018-06-10T01:40:14.520Z,1011.1
2018-06-10T01:41:23.536Z,1011.07
2018-06-10T01:42:32.400Z,1011.07
2018-06-10T01:43:41.542Z,1011.1
2018-06-10T01:44:50.409Z,1011.15
2018-06-10T01:45:59.551Z,1011.11
2018-06-10T01:47:08.417Z,1011.08
2018-06-10T01:48:17.282Z,1011.07
2018-06-10T01:49:26.146Z,1011.11
2018-06-10T01:50:35.012Z,1011.12
2018-06-10T01:51:43.874Z,1011.15
2018-06-10T01:52:52.836Z,1011.18
2018-06-10T01:54:01.701Z,1011.17
2018-06-10T01:55:10.564Z,1011.13
2018-06-10T01:56:19.434Z,1011.1
2018-06-10T01:57:28.847Z,1011.13
2018-06-10T01:58:37.712Z,1011.16
2018-06-10T01:59:46.855Z,1011.16
2018-06-10T02:00:55.991Z,1011.1
2018-06-10T02:02:04.856Z,1011.08
2018-06-10T02:03:13.718Z,1011.11
2018-06-10T02:04:22.581Z,1011.07
2018-06-10T02:05:31.451Z,1011.03
2018-06-10T02:06:40.314Z,1010.99
2018-06-10T02:07:49.177Z,1011.05
2018-06-10T02:08:58.042Z,1011.1
2018-06-10T02:10:07.256Z,1011.1
2018-06-10T02:11:16.118Z,1011.11
2018-06-10T02:12:25.258Z,1011.08
2018-06-10T02:13:34.397Z,1011.11
2018-06-10T02:14:43.818Z,1011.12
2018-06-10T02:15:52.881Z,1011.11
2018-06-10T02:17:02.308Z,1011.13
2018-06-10T02:18:11.172Z,1011.1
2018-06-10T02:19:20.037Z,1010.99
2018-06-10T02:20:28.905Z,1010.99
2018-06-10T02:21:38.019Z,1010.97
2018-06-10T02:22:46.886Z,1011.02
2018-06-10T02:23:55.748Z,1011.03
2018-06-10T02:25:04.887Z,1010.99
2018-06-10T02:26:13.749Z,1010.99
2018-06-10T02:27:22.937Z,1011.01
2018-06-10T02:28:32.079Z,1011.03
2018-06-10T02:29:41.216Z,1011.01
2018-06-10T02:30:50.916Z,1011
2018-06-10T02:31:59.782Z,1010.99
2018-06-10T02:33:08.988Z,1011.06
2018-06-10T02:34:18.165Z,1011.06
2018-06-10T02:35:27.005Z,1011.11
2018-06-10T02:36:35.869Z,1011.14
2018-06-10T02:37:45.013Z,1011.11
2018-06-10T02:38:53.935Z,1011.1
2018-06-10T02:40:03.077Z,1011.09
2018-06-10T02:41:11.938Z,1011.05
2018-06-10T02:42:21.079Z,1011.01
2018-06-10T02:43:29.946Z,1010.95
2018-06-10T02:44:38.863Z,1010.92
2018-06-10T02:45:48.003Z,1010.89
2018-06-10T02:46:56.870Z,1010.88
2018-06-10T02:48:06.012Z,1010.85
2018-06-10T02:49:14.879Z,1010.85
2018-06-10T02:50:24.020Z,1010.89
2018-06-10T02:51:33.162Z,1010.86
2018-06-10T02:52:42.311Z,1010.88
2018-06-10T02:53:51.470Z,1010.9
2018-06-10T02:55:00.619Z,1010.87
2018-06-10T02:56:10.195Z,1010.87
2018-06-10T02:57:19.061Z,1010.88
2018-06-10T02:58:28.527Z,1010.91
2018-06-10T02:59:37.668Z,1010.94
2018-06-10T03:00:47.083Z,1010.98
2018-06-10T03:01:55.947Z,1010.92
2018-06-10T03:03:05.367Z,1010.93
2018-06-10T03:04:14.528Z,1010.96
2018-06-10T03:05:23.390Z,1010.93
2018-06-10T03:06:32.596Z,1010.88
2018-06-10T03:07:42.061Z,1010.86
2018-06-10T03:08:50.877Z,1010.85
2018-06-10T03:09:59.747Z,1010.89
2018-06-10T03:11:09.186Z,1010.92
2018-06-10T03:12:18.607Z,1010.92
2018-06-10T03:13:27.798Z,1010.9
2018-06-10T03:14:37.220Z,1010.95
2018-06-10T03:15:46.653Z,1010.97
2018-06-10T03:16:55.506Z,1010.98
2018-06-10T03:18:04.368Z,1010.98
2018-06-10T03:19:13.881Z,1011.03
2018-06-10T03:20:22.745Z,1011.01
2018-06-10T03:21:31.609Z,1010.99
2018-06-10T03:22:40.472Z,1010.95
2018-06-10T03:23:49.612Z,1010.96
2018-06-10T03:24:58.526Z,1010.96
2018-06-10T03:26:07.388Z,1010.89
2018-06-10T03:27:16.250Z,1010.87
2018-06-10T03:28:25.669Z,1010.85
2018-06-10T03:29:34.533Z,1010.86
2018-06-10T03:30:43.547Z,1010.87
2018-06-10T03:31:53.531Z,1010.87
2018-06-10T03:33:03.240Z,1010.85
2018-06-10T03:34:12.105Z,1010.89
2018-06-10T03:35:21.242Z,1010.88
2018-06-10T03:36:30.456Z,1010.88
2018-06-10T03:37:39.320Z,1010.94
2018-06-10T03:38:48.184Z,1010.91
2018-06-10T03:39:57.046Z,1010.9
2018-06-10T03:41:06.186Z,1010.91
2018-06-10T03:42:15.381Z,1010.92
2018-06-10T03:43:24.248Z,1010.95
2018-06-10T03:44:33.207Z,1010.9
2018-06-10T03:45:42.070Z,1010.86
2018-06-10T03:46:51.209Z,1010.84
2018-06-10T03:48:00.448Z,1010.85
2018-06-10T03:49:09.310Z,1010.86
2018-06-10T03:50:18.172Z,1010.83
2018-06-10T03:51:27.089Z,1010.83
2018-06-10T03:52:36.502Z,1010.84
2018-06-10T03:53:45.992Z,1010.86
2018-06-10T03:54:54.854Z,1010.91
2018-06-10T03:56:03.717Z,1010.93
2018-06-10T03:57:12.582Z,1010.96
2018-06-10T03:58:21.445Z,1010.94
2018-06-10T03:59:30.458Z,1010.98
2018-06-10T04:00:39.598Z,1010.96
2018-06-10T04:01:48.735Z,1010.94
2018-06-10T04:02:57.597Z,1010.96
2018-06-10T04:04:06.459Z,1010.96
2018-06-10T04:05:15.421Z,1010.96
2018-06-10T04:06:24.287Z,1010.96
2018-06-10T04:07:33.428Z,1011.02
2018-06-10T04:08:42.567Z,1011.05
2018-06-10T04:09:51.429Z,1011.07
2018-06-10T04:11:00.417Z,1011.13
2018-06-10T04:12:09.280Z,1011.11
2018-06-10T04:13:18.420Z,1011.14
2018-06-10T04:14:27.282Z,1011.16
2018-06-10T04:15:36.418Z,1011.19
2018-06-10T04:16:45.711Z,1011.17
2018-06-10T04:17:54.572Z,1011.25
2018-06-10T04:19:03.437Z,1011.23
2018-06-10T04:20:12.301Z,1011.22
2018-06-10T04:21:21.163Z,1011.2
2018-06-10T04:22:30.077Z,1011.21
2018-06-10T04:23:38.940Z,1011.18
2018-06-10T04:24:47.805Z,1011.2
2018-06-10T04:25:56.677Z,1011.25
2018-06-10T04:27:05.539Z,1011.23
2018-06-10T04:28:14.653Z,1011.24
2018-06-10T04:29:23.515Z,1011.23
2018-06-10T04:30:32.385Z,1011.3
2018-06-10T04:31:41.521Z,1011.29
2018-06-10T04:32:50.382Z,1011.35
2018-06-10T04:33:59.402Z,1011.39
2018-06-10T04:35:08.263Z,1011.43
2018-06-10T04:36:17.408Z,1011.51
2018-06-10T04:37:26.831Z,1011.63
2018-06-10T04:38:35.693Z,1011.71
2018-06-10T04:39:45.369Z,1011.78
2018-06-10T04:40:54.231Z,1011.91
2018-06-10T04:42:03.092Z,1012
2018-06-10T04:43:11.955Z,1011.96
2018-06-10T04:44:20.820Z,1011.94
2018-06-10T04:45:29.736Z,1011.86
2018-06-10T04:46:38.602Z,1011.9
2018-06-10T04:47:47.743Z,1011.82
2018-06-10T04:48:56.609Z,1011.85
2018-06-10T04:50:05.473Z,1011.85
2018-06-10T04:51:14.587Z,1011.88
2018-06-10T04:52:23.449Z,1011.89
2018-06-10T04:53:32.312Z,1011.87
2018-06-10T04:54:41.178Z,1011.83
2018-06-10T04:55:50.040Z,1011.82
2018-06-10T04:56:59.281Z,1011.79
2018-06-10T04:58:08.144Z,1011.75
2018-06-10T04:59:17.009Z,1011.82
2018-06-10T05:00:26.151Z,1011.82
2018-06-10T05:01:35.013Z,1011.87
2018-06-10T05:02:43.931Z,1011.88
2018-06-10T05:03:53.351Z,1011.83
2018-06-10T05:05:02.212Z,1011.86
2018-06-10T05:06:11.078Z,1011.81
2018-06-10T05:07:20.222Z,1011.85
2018-06-10T05:08:29.084Z,1011.82
2018-06-10T05:09:38.228Z,1011.83
2018-06-10T05:10:47.092Z,1011.86
2018-06-10T05:11:56.234Z,1011.86
2018-06-10T05:13:05.099Z,1011.87
2018-06-10T05:14:13.963Z,1011.9
2018-06-10T05:15:22.832Z,1011.91
2018-06-10T05:16:31.982Z,1011.94
2018-06-10T05:17:40.842Z,1011.96
2018-06-10T05:18:49.704Z,1011.98
2018-06-10T05:19:58.615Z,1011.99
2018-06-10T05:21:07.762Z,1011.99
2018-06-10T05:22:16.905Z,1011.99
2018-06-10T05:23:26.047Z,1012.05
2018-06-10T05:24:34.909Z,1012.01
2018-06-10T05:25:43.871Z,1012.05
2018-06-10T05:26:52.733Z,1012.08
2018-06-10T05:28:01.621Z,1012.05
2018-06-10T05:29:10.489Z,1012.09
2018-06-10T05:30:19.630Z,1012.05
2018-06-10T05:31:28.642Z,1012.03
2018-06-10T05:32:37.505Z,1012.07
2018-06-10T05:33:46.368Z,1012.06
2018-06-10T05:34:55.233Z,1012.03
2018-06-10T05:36:04.097Z,1012
2018-06-10T05:37:13.059Z,1012
2018-06-10T05:38:21.921Z,1011.98
2018-06-10T05:39:30.782Z,1011.96
2018-06-10T05:40:39.651Z,1012.06
2018-06-10T05:41:48.509Z,1011.92
2018-06-10T05:42:57.370Z,1011.86
2018-06-10T05:44:06.236Z,1011.83
2018-06-10T05:45:15.374Z,1011.67
2018-06-10T05:46:24.235Z,1011.61
2018-06-10T05:47:33.099Z,1011.58
2018-06-10T05:48:42.343Z,1011.51
2018-06-10T05:49:51.207Z,1011.43
2018-06-10T05:51:00.070Z,1011.44
2018-06-10T05:52:09.488Z,1011.38
2018-06-10T05:53:18.349Z,1011.36
2018-06-10T05:54:27.212Z,1011.41
2018-06-10T05:55:36.073Z,1011.47
2018-06-10T05:56:44.936Z,1011.53
2018-06-10T05:57:54.076Z,1011.59
2018-06-10T05:59:02.941Z,1011.58
2018-06-10T06:00:11.905Z,1011.66
2018-06-10T06:01:21.050Z,1011.63
2018-06-10T06:02:29.910Z,1011.59
2018-06-10T06:03:38.770Z,1011.53
2018-06-10T06:04:47.633Z,1011.46
2018-06-10T06:05:56.545Z,1011.46
2018-06-10T06:07:05.410Z,1011.48
2018-06-10T06:08:14.549Z,1011.42
2018-06-10T06:09:23.692Z,1011.41
2018-06-10T06:10:32.552Z,1011.43
2018-06-10T06:11:41.429Z,1011.48
2018-06-10T06:12:50.567Z,1011.43
2018-06-10T06:13:59.431Z,1011.38
2018-06-10T06:15:08.294Z,1011.43
2018-06-10T06:16:17.436Z,1011.45
2018-06-10T06:17:26.408Z,1011.47
2018-06-10T06:18:35.267Z,1011.48
2018-06-10T06:19:44.134Z,1011.48
2018-06-10T06:20:52.997Z,1011.54
2018-06-10T06:22:01.862Z,1011.48
2018-06-10T06:23:10.719Z,1011.49
2018-06-10T06:24:19.580Z,1011.45
2018-06-10T06:25:28.443Z,1011.52
2018-06-10T06:26:37.305Z,1011.54
2018-06-10T06:27:46.165Z,1011.62
2018-06-10T06:28:55.077Z,1011.62
2018-06-10T06:30:03.941Z,1011.64
2018-06-10T06:31:13.366Z,1011.67
2018-06-10T06:32:22.503Z,1011.68
2018-06-10T06:33:31.364Z,1011.76
2018-06-10T06:34:40.376Z,1011.77
2018-06-10T06:35:49.237Z,1011.8
2018-06-10T06:36:58.099Z,1011.86
2018-06-10T06:38:06.961Z,1011.82
2018-06-10T06:39:16.102Z,1011.91
2018-06-10T06:40:25.067Z,1011.96
2018-06-10T06:41:33.929Z,1012.09
2018-06-10T06:42:42.792Z,1012.2
2018-06-10T06:43:51.655Z,1012.25
2018-06-10T06:45:00.522Z,1012.3
2018-06-10T06:46:09.739Z,1012.37
2018-06-10T06:47:18.601Z,1012.38
2018-06-10T06:48:27.745Z,1012.39
2018-06-10T06:49:36.886Z,1012.41
2018-06-10T06:50:46.024Z,1012.49
2018-06-10T06:51:54.892Z,1012.49
2018-06-10T06:53:03.752Z,1012.51
2018-06-10T06:54:12.890Z,1012.54
2018-06-10T06:55:21.754Z,1012.49
2018-06-10T06:56:30.616Z,1012.49
2018-06-10T06:57:39.529Z,1012.47
2018-06-10T06:58:48.392Z,1012.5
2018-06-10T06:59:57.255Z,1012.52
2018-06-10T07:01:06.403Z,1012.51
2018-06-10T07:02:15.264Z,1012.56
2018-06-10T07:03:24.127Z,1012.59
2018-06-10T07:04:33.268Z,1012.61
2018-06-10T07:05:42.406Z,1012.61
2018-06-10T07:06:51.269Z,1012.64
2018-06-10T07:08:00.131Z,1012.59
2018-06-10T07:09:08.994Z,1012.59
2018-06-10T07:10:17.866Z,1012.61
2018-06-10T07:11:26.729Z,1012.62
2018-06-10T07:12:35.593Z,1012.61
2018-06-10T07:13:44.463Z,1012.59
2018-06-10T07:14:53.697Z,1012.64
2018-06-10T07:16:02.559Z,1012.64
2018-06-10T07:17:11.423Z,1012.66
2018-06-10T07:18:20.296Z,1012.67
2018-06-10T07:19:29.162Z,1012.75
2018-06-10T07:20:38.075Z,1012.69
2018-06-10T07:21:46.941Z,1012.72
2018-06-10T07:22:55.808Z,1012.74
2018-06-10T07:24:04.679Z,1012.75
2018-06-10T07:25:13.540Z,1012.77
2018-06-10T07:26:22.754Z,1012.79
2018-06-10T07:27:31.950Z,1012.76
2018-06-10T07:28:44.900Z,1012.68
2018-06-10T07:29:54.043Z,1012.69
2018-06-10T07:31:02.909Z,1012.67
2018-06-10T07:32:11.923Z,1012.68
2018-06-10T07:33:21.096Z,1012.69
2018-06-10T07:34:30.266Z,1012.63
2018-06-10T07:35:39.127Z,1012.62
2018-06-10T07:36:47.991Z,1012.56
2018-06-10T07:37:56.962Z,1012.55
2018-06-10T07:39:05.819Z,1012.54
2018-06-10T07:40:15.239Z,1012.53
2018-06-10T07:41:24.100Z,1012.48
2018-06-10T07:42:33.240Z,1012.53
2018-06-10T07:43:42.485Z,1012.47
2018-06-10T07:44:51.347Z,1012.44
2018-06-10T07:46:00.209Z,1012.47
2018-06-10T07:47:09.074Z,1012.54
2018-06-10T07:48:18.241Z,1012.54
2018-06-10T07:49:27.441Z,1012.56
2018-06-10T07:50:36.304Z,1012.52
2018-06-10T07:51:45.166Z,1012.51
2018-06-10T07:52:54.306Z,1012.55
2018-06-10T07:54:03.443Z,1012.55
2018-06-10T07:55:12.355Z,1012.56
2018-06-10T07:56:21.497Z,1012.59
2018-06-10T07:57:30.601Z,1012.57
2018-06-10T07:58:40.451Z,1012.61
2018-06-10T07:59:49.314Z,1012.63
2018-06-10T08:00:58.183Z,1012.54
2018-06-10T08:02:07.605Z,1012.53
2018-06-10T08:03:16.744Z,1012.49
2018-06-10T08:04:25.607Z,1012.52
2018-06-10T08:05:34.742Z,1012.5
2018-06-10T08:06:43.604Z,1012.48
2018-06-10T08:07:52.467Z,1012.47
2018-06-10T08:09:01.333Z,1012.46
2018-06-10T08:10:10.191Z,1012.42
2018-06-10T08:11:19.051Z,1012.42
2018-06-10T08:12:27.915Z,1012.35
2018-06-10T08:13:36.783Z,1012.38
2018-06-10T08:14:45.645Z,1012.31
2018-06-10T08:15:54.802Z,1012.34
2018-06-10T08:17:03.660Z,1012.34
2018-06-10T08:18:12.524Z,1012.31
2018-06-10T08:19:21.386Z,1012.36
2018-06-10T08:20:30.250Z,1012.29
2018-06-10T08:21:39.389Z,1012.31
2018-06-10T08:22:48.256Z,1012.27
2018-06-10T08:23:57.395Z,1012.29
2018-06-10T08:25:06.548Z,1012.22
2018-06-10T08:26:15.559Z,1012.26
2018-06-10T08:27:24.718Z,1012.25
2018-06-10T08:28:33.581Z,1012.18
2018-06-10T08:29:42.440Z,1012.17
2018-06-10T08:30:51.303Z,1012.11
2018-06-10T08:32:00.618Z,1012.24
2018-06-10T08:33:10.184Z,1012.13
2018-06-10T08:34:19.047Z,1012.17
2018-06-10T08:35:28.189Z,1012.16
2018-06-10T08:36:37.053Z,1012.18
2018-06-10T08:37:46.455Z,1012.14
2018-06-10T08:38:55.316Z,1012.15
2018-06-10T08:40:04.767Z,1012.14
2018-06-10T08:41:13.634Z,1012.17
2018-06-10T08:42:22.775Z,1012.16
2018-06-10T08:43:31.787Z,1012.13
2018-06-10T08:44:40.651Z,1012.13
2018-06-10T08:45:49.515Z,1012.17
2018-06-10T08:46:58.377Z,1012.12
2018-06-10T08:48:07.383Z,1012.13
2018-06-10T08:49:16.400Z,1012.1
2018-06-10T08:50:25.342Z,1012.14
2018-06-10T08:51:34.205Z,1012.1
2018-06-10T08:52:43.070Z,1012.06
2018-06-10T08:53:52.486Z,1012.03
2018-06-10T08:55:01.349Z,1012.11
2018-06-10T08:56:10.216Z,1012.08
2018-06-10T08:57:19.359Z,1012.2
2018-06-10T08:58:28.221Z,1012.18
2018-06-10T08:59:37.367Z,1012.22
2018-06-10T09:00:47.891Z,1012.22
2018-06-10T09:02:00.685Z,1012.22
2018-06-10T09:03:12.441Z,1012.33
2018-06-10T09:04:21.305Z,1012.35
2018-06-10T09:05:30.168Z,1012.39
2018-06-10T09:06:39.442Z,1012.43
2018-06-10T09:07:49.375Z,1012.44
2018-06-10T09:08:58.326Z,1012.48
2018-06-10T09:10:07.791Z,1012.52
2018-06-10T09:11:16.662Z,1012.54
2018-06-10T09:12:25.800Z,1012.59
2018-06-10T09:13:34.666Z,1012.63
2018-06-10T09:14:43.548Z,1012.69
2018-06-10T09:15:52.392Z,1012.7
2018-06-10T09:17:01.256Z,1012.71
2018-06-10T09:18:10.122Z,1012.71
2018-06-10T09:19:18.984Z,1012.7
2018-06-10T09:20:27.846Z,1012.66
2018-06-10T09:21:36.990Z,1012.66
2018-06-10T09:22:45.857Z,1012.61
2018-06-10T09:23:55.001Z,1012.55
2018-06-10T09:25:03.866Z,1012.57
2018-06-10T09:26:12.729Z,1012.56
2018-06-10T09:27:21.589Z,1012.63
2018-06-10T09:28:30.737Z,1012.61
2018-06-10T09:29:39.600Z,1012.57
2018-06-10T09:30:48.467Z,1012.53
2018-06-10T09:31:57.432Z,1012.57
2018-06-10T09:33:06.578Z,1012.54
2018-06-10T09:34:16.024Z,1012.55
2018-06-10T09:35:24.910Z,1012.53
2018-06-10T09:36:33.755Z,1012.57
2018-06-10T09:37:42.968Z,1012.6
2018-06-10T09:38:51.830Z,1012.61
2018-06-10T09:40:00.978Z,1012.6
2018-06-10T09:41:09.847Z,1012.48
2018-06-10T09:42:18.710Z,1012.51
2018-06-10T09:43:28.037Z,1012.46
2018-06-10T09:44:36.900Z,1012.49
2018-06-10T09:45:45.766Z,1012.46
2018-06-10T09:46:54.904Z,1012.44
2018-06-10T09:48:03.769Z,1012.42
2018-06-10T09:49:12.898Z,1012.43
2018-06-10T09:50:21.763Z,1012.45
2018-06-10T09:51:30.626Z,1012.51
2018-06-10T09:52:39.773Z,1012.55
2018-06-10T09:53:48.913Z,1012.54
2018-06-10T09:54:57.778Z,1012.47
2018-06-10T09:56:07.076Z,1012.49
2018-06-10T09:57:15.941Z,1012.49
2018-06-10T09:58:24.816Z,1012.51
2018-06-10T09:59:33.681Z,1012.49
2018-06-10T10:00:42.548Z,1012.54
2018-06-10T10:01:51.413Z,1012.53
2018-06-10T10:03:00.566Z,1012.52
2018-06-10T10:04:09.785Z,1012.53
2018-06-10T10:05:18.670Z,1012.57
2018-06-10T10:06:27.534Z,1012.6
2018-06-10T10:07:36.400Z,1012.6
2018-06-10T10:08:45.269Z,1012.58
2018-06-10T10:09:54.460Z,1012.58
2018-06-10T10:11:03.597Z,1012.56
2018-06-10T10:12:12.745Z,1012.63
2018-06-10T10:13:21.944Z,1012.63
2018-06-10T10:14:30.889Z,1012.62
2018-06-10T10:15:40.214Z,1012.61
2018-06-10T10:16:49.081Z,1012.61
2018-06-10T10:17:57.948Z,1012.6
2018-06-10T10:19:06.812Z,1012.6
2018-06-10T10:20:15.727Z,1012.59
2018-06-10T10:21:24.627Z,1012.58
2018-06-10T10:22:33.605Z,1012.62
2018-06-10T10:23:42.750Z,1012.62
2018-06-10T10:24:51.896Z,1012.62
2018-06-10T10:26:00.947Z,1012.64
2018-06-10T10:27:09.822Z,1012.61
2018-06-10T10:28:18.688Z,1012.55
2018-06-10T10:29:27.592Z,1012.57
2018-06-10T10:30:36.471Z,1012.57
2018-06-10T10:31:45.767Z,1012.58
2018-06-10T10:32:54.903Z,1012.56
2018-06-10T10:34:04.054Z,1012.55
2018-06-10T10:35:12.919Z,1012.58
2018-06-10T10:36:21.780Z,1012.53
2018-06-10T10:37:30.897Z,1012.59
2018-06-10T10:38:39.764Z,1012.53
2018-06-10T10:39:48.633Z,1012.55
2018-06-10T10:40:57.777Z,1012.52
2018-06-10T10:42:06.663Z,1012.55
2018-06-10T10:43:15.676Z,1012.54
2018-06-10T10:44:24.671Z,1012.56
2018-06-10T10:45:33.536Z,1012.52
2018-06-10T10:46:42.407Z,1012.5
2018-06-10T10:47:51.274Z,1012.52
2018-06-10T10:49:00.375Z,1012.51
2018-06-10T10:50:09.209Z,1012.53
2018-06-10T10:51:18.237Z,1012.49
2018-06-10T10:52:27.381Z,1012.47
2018-06-10T10:53:36.588Z,1012.46
2018-06-10T10:54:45.693Z,1012.49
2018-06-10T10:55:54.557Z,1012.47
2018-06-10T10:57:03.811Z,1012.48
2018-06-10T10:58:12.926Z,1012.43
2018-06-10T10:59:22.066Z,1012.47
2018-06-10T11:00:30.935Z,1012.45
2018-06-10T11:01:39.798Z,1012.42
2018-06-10T11:02:48.663Z,1012.42
2018-06-10T11:03:57.528Z,1012.42
2018-06-10T11:05:06.403Z,1012.44
2018-06-10T11:06:15.947Z,1012.45
2018-06-10T11:07:24.813Z,1012.42
2018-06-10T11:08:33.701Z,1012.43
2018-06-10T11:09:42.844Z,1012.41
2018-06-10T11:10:51.992Z,1012.43
2018-06-10T11:12:01.200Z,1012.39
2018-06-10T11:13:10.351Z,1012.45
2018-06-10T11:14:19.502Z,1012.44
2018-06-10T11:15:28.367Z,1012.44
2018-06-10T11:16:37.516Z,1012.5
2018-06-10T11:17:46.535Z,1012.48
2018-06-10T11:18:55.404Z,1012.45
2018-06-10T11:20:04.269Z,1012.47
2018-06-10T11:21:13.137Z,1012.46
2018-06-10T11:22:22.279Z,1012.5
2018-06-10T11:23:31.294Z,1012.54
2018-06-10T11:24:40.721Z,1012.48
2018-06-10T11:25:49.588Z,1012.46
2018-06-10T11:26:58.463Z,1012.5
2018-06-10T11:28:07.619Z,1012.49
2018-06-10T11:29:17.058Z,1012.49
2018-06-10T11:30:25.923Z,1012.49
2018-06-10T11:31:34.792Z,1012.45
2018-06-10T11:32:43.933Z,1012.44
2018-06-10T11:33:52.800Z,1012.46
2018-06-10T11:35:01.994Z,1012.46
2018-06-10T11:36:10.862Z,1012.49
2018-06-10T11:37:20.003Z,1012.41
2018-06-10T11:38:28.875Z,1012.44
2018-06-10T11:39:37.738Z,1012.44
2018-06-10T11:40:46.756Z,1012.42
2018-06-10T11:41:55.629Z,1012.43
2018-06-10T11:43:04.775Z,1012.43
2018-06-10T11:44:13.644Z,1012.46
2018-06-10T11:45:22.509Z,1012.48
2018-06-10T11:46:31.376Z,1012.43
2018-06-10T11:47:40.522Z,1012.45
2018-06-10T11:48:50.218Z,1012.47
2018-06-10T11:49:59.083Z,1012.47
2018-06-10T11:51:08.506Z,1012.51
2018-06-10T11:52:17.522Z,1012.47
2018-06-10T11:53:26.390Z,1012.44
2018-06-10T11:54:35.532Z,1012.39
2018-06-10T11:55:44.679Z,1012.43
2018-06-10T11:56:53.549Z,1012.43
2018-06-10T11:58:02.472Z,1012.44
2018-06-10T11:59:11.885Z,1012.43
2018-06-10T12:00:21.026Z,1012.45
2018-06-10T12:01:29.893Z,1012.49
2018-06-10T12:02:38.762Z,1012.44
2018-06-10T12:03:47.637Z,1012.44
2018-06-10T12:04:56.505Z,1012.43
2018-06-10T12:06:05.373Z,1012.39
2018-06-10T12:07:14.241Z,1012.44
2018-06-10T12:08:23.107Z,1012.41
2018-06-10T12:09:32.035Z,1012.39
2018-06-10T12:10:40.980Z,1012.38
2018-06-10T12:11:50.107Z,1012.39
2018-06-10T12:12:58.974Z,1012.36
2018-06-10T12:14:07.867Z,1012.34
2018-06-10T12:15:17.185Z,1012.39
2018-06-10T12:16:26.055Z,1012.32
2018-06-10T12:17:34.959Z,1012.36
2018-06-10T12:18:43.798Z,1012.31
2018-06-10T12:19:52.669Z,1012.32
2018-06-10T12:21:01.995Z,1012.31
2018-06-10T12:22:10.862Z,1012.37
2018-06-10T12:23:19.729Z,1012.32
2018-06-10T12:24:28.644Z,1012.33
2018-06-10T12:25:38.171Z,1012.33
2018-06-10T12:26:47.146Z,1012.3
2018-06-10T12:27:56.013Z,1012.34
2018-06-10T12:29:04.887Z,1012.3
2018-06-10T12:30:13.760Z,1012.33
2018-06-10T12:31:22.630Z,1012.32
2018-06-10T12:32:32.215Z,1012.29
2018-06-10T12:33:41.087Z,1012.32
2018-06-10T12:34:50.020Z,1012.32
2018-06-10T12:35:58.893Z,1012.3
2018-06-10T12:37:08.045Z,1012.32
2018-06-10T12:38:17.625Z,1012.34
2018-06-10T12:39:26.499Z,1012.35
2018-06-10T12:40:35.655Z,1012.37
2018-06-10T12:41:44.527Z,1012.36
2018-06-10T12:42:53.403Z,1012.33
2018-06-10T12:44:02.628Z,1012.32
2018-06-10T12:45:11.501Z,1012.29
2018-06-10T12:46:20.377Z,1012.32
2018-06-10T12:47:29.251Z,1012.3
2018-06-10T12:48:38.124Z,1012.3
2018-06-10T12:49:47.354Z,1012.4
2018-06-10T12:50:56.509Z,1012.28
2018-06-10T12:52:05.385Z,1012.33
2018-06-10T12:53:14.262Z,1012.32
2018-06-10T12:54:23.137Z,1012.33
2018-06-10T12:55:32.161Z,1012.24
2018-06-10T12:56:41.590Z,1012.24
2018-06-10T12:57:50.772Z,1012.13
2018-06-10T12:58:59.924Z,1012.25
2018-06-10T13:00:08.805Z,1012.35
2018-06-10T13:01:17.733Z,1012.3
2018-06-10T13:02:27.161Z,1012.26
2018-06-10T13:03:36.590Z,1012.28
2018-06-10T13:04:45.465Z,1012.26
2018-06-10T13:05:54.342Z,1012.37
2018-06-10T13:07:03.641Z,1012.3
2018-06-10T13:08:13.069Z,1012.16
2018-06-10T13:09:22.229Z,1012.32
2018-06-10T13:10:31.107Z,1012.21
2018-06-10T13:11:39.983Z,1012.15
2018-06-10T13:12:49.007Z,1012.17
2018-06-10T13:13:57.893Z,1012.24
2018-06-10T13:15:06.769Z,1012.22
2018-06-10T13:16:15.920Z,1012.21
2018-06-10T13:17:24.796Z,1012.25
2018-06-10T13:18:33.670Z,1012.16
2018-06-10T13:19:42.824Z,1012.28
2018-06-10T13:20:51.696Z,1012.15
2018-06-10T13:22:00.576Z,1012.2
2018-06-10T13:23:10.010Z,1012.28
2018-06-10T13:24:18.989Z,1012.27
2018-06-10T13:25:27.864Z,1012.24
2018-06-10T13:26:36.746Z,1012.25
2018-06-10T13:27:45.618Z,1012.26
2018-06-10T13:28:54.494Z,1012.22
2018-06-10T13:30:03.420Z,1012.22
2018-06-10T13:31:12.294Z,1012.26
2018-06-10T13:32:21.169Z,1012.22
2018-06-10T13:33:30.324Z,1012.18
2018-06-10T13:34:39.205Z,1012.21
2018-06-10T13:35:48.177Z,1012.4
2018-06-10T13:36:57.066Z,1012.32
2018-06-10T13:38:05.931Z,1012.49
2018-06-10T13:39:18.111Z,1012.56
2018-06-10T13:40:27.003Z,1012.3
2018-06-10T13:41:36.464Z,1012.29
2018-06-10T13:42:45.338Z,1012.43
2018-06-10T13:43:54.214Z,1012.45
2018-06-10T13:45:03.089Z,1012.23
2018-06-10T13:46:12.011Z,1012.19
2018-06-10T13:47:21.036Z,1012.18
2018-06-10T13:48:29.915Z,1012.3
2018-06-10T13:49:38.787Z,1012.21
2018-06-10T13:50:47.661Z,1012.19
2018-06-10T13:51:56.539Z,1012.17
2018-06-10T13:53:05.508Z,1012.23
2018-06-10T13:54:14.384Z,1012.18
2018-06-10T13:55:23.260Z,1012.19
2018-06-10T13:56:32.132Z,1012.25